sensor_id;sensor_type;location;lat;lon;timestamp;P1;durP1;ratioP1;P2;durP2;ratioP2
44516;SDS011;30223;17.182;-96.766;2023-04-01T00:01:23;7.35;;;4.57;;
44516;SDS011;30223;17.182;-96.766;2023-04-01T00:03:51;6.15;;;4.75;;
44516;SDS011;30223;17.182;-96.766;2023-04-01T00:06:19;7.22;;;5.45;;
44516;SDS011;30223;17.182;-96.766;2023-04-01T00:08:46;6.05;;;4.85;;
44516;SDS011;30223;17.182;-96.766;2023-04-01T00:11:12;5.38;;;4.50;;
44516;SDS011;30223;17.182;-96.766;2023-04-01T00:13:40;5.60;;;4.93;;
44516;SDS011;30223;17.182;-96.766;2023-04-01T00:16:07;6.50;;;5.05;;
44516;SDS011;30223;17.182;-96.766;2023-04-01T00:18:34;5.70;;;4.65;;
44516;SDS011;30223;17.182;-96.766;2023-04-01T00:21:00;5.93;;;4.90;;
44516;SDS011;30223;17.182;-96.766;2023-04-01T00:23:27;6.15;;;4.65;;
44516;SDS011;30223;17.182;-96.766;2023-04-01T00:25:54;6.75;;;5.07;;
44516;SDS011;30223;17.182;-96.766;2023-04-01T00:28:20;5.75;;;4.55;;
44516;SDS011;30223;17.182;-96.766;2023-04-01T00:30:47;6.57;;;4.47;;
44516;SDS011;30223;17.182;-96.766;2023-04-01T00:33:14;5.72;;;4.65;;
44516;SDS011;30223;17.182;-96.766;2023-04-01T00:35:42;5.13;;;4.45;;
44516;SDS011;30223;17.182;-96.766;2023-04-01T00:38:09;6.00;;;4.82;;
44516;SDS011;30223;17.182;-96.766;2023-04-01T00:40:43;5.45;;;4.68;;
44516;SDS011;30223;17.182;-96.766;2023-04-01T00:45:43;9.35;;;4.28;;
44516;SDS011;30223;17.182;-96.766;2023-04-01T00:48:21;6.85;;;5.00;;
44516;SDS011;30223;17.182;-96.766;2023-04-01T00:50:52;4.38;;;3.97;;
44516;SDS011;30223;17.182;-96.766;2023-04-01T00:53:28;5.28;;;4.53;;
44516;SDS011;30223;17.182;-96.766;2023-04-01T00:55:59;6.20;;;4.80;;
44516;SDS011;30223;17.182;-96.766;2023-04-01T00:58:31;5.00;;;4.15;;
44516;SDS011;30223;17.182;-96.766;2023-04-01T01:01:02;6.10;;;4.18;;
44516;SDS011;30223;17.182;-96.766;2023-04-01T01:03:30;5.22;;;4.35;;
44516;SDS011;30223;17.182;-96.766;2023-04-01T01:11:50;7.18;;;4.40;;
44516;SDS011;30223;17.182;-96.766;2023-04-01T01:23:20;6.40;;;4.90;;
44516;SDS011;30223;17.182;-96.766;2023-04-01T01:37:22;4.78;;;4.30;;
44516;SDS011;30223;17.182;-96.766;2023-04-01T01:39:54;7.05;;;4.25;;
44516;SDS011;30223;17.182;-96.766;2023-04-01T01:42:24;5.90;;;4.22;;
44516;SDS011;30223;17.182;-96.766;2023-04-01T01:44:54;5.50;;;3.78;;
44516;SDS011;30223;17.182;-96.766;2023-04-01T01:47:23;4.53;;;4.13;;
44516;SDS011;30223;17.182;-96.766;2023-04-01T01:49:51;5.47;;;4.70;;
44516;SDS011;30223;17.182;-96.766;2023-04-01T01:52:21;7.18;;;4.43;;
44516;SDS011;30223;17.182;-96.766;2023-04-01T01:54:52;4.97;;;3.80;;
44516;SDS011;30223;17.182;-96.766;2023-04-01T01:57:23;5.15;;;4.15;;
44516;SDS011;30223;17.182;-96.766;2023-04-01T02:00:06;5.90;;;4.28;;
44516;SDS011;30223;17.182;-96.766;2023-04-01T02:02:45;7.70;;;4.45;;
44516;SDS011;30223;17.182;-96.766;2023-04-01T02:05:19;5.65;;;4.53;;
44516;SDS011;30223;17.182;-96.766;2023-04-01T02:07:52;4.95;;;4.00;;
44516;SDS011;30223;17.182;-96.766;2023-04-01T02:10:38;6.70;;;4.13;;
44516;SDS011;30223;17.182;-96.766;2023-04-01T02:13:11;5.70;;;4.95;;
44516;SDS011;30223;17.182;-96.766;2023-04-01T02:16:05;7.55;;;5.30;;
44516;SDS011;30223;17.182;-96.766;2023-04-01T02:18:40;6.78;;;4.40;;
44516;SDS011;30223;17.182;-96.766;2023-04-01T02:21:09;9.27;;;4.65;;
44516;SDS011;30223;17.182;-96.766;2023-04-01T02:23:37;7.32;;;4.93;;
44516;SDS011;30223;17.182;-96.766;2023-04-01T02:26:05;6.28;;;4.13;;
44516;SDS011;30223;17.182;-96.766;2023-04-01T02:28:34;6.55;;;4.60;;
44516;SDS011;30223;17.182;-96.766;2023-04-01T02:31:04;5.88;;;4.55;;
44516;SDS011;30223;17.182;-96.766;2023-04-01T02:33:31;4.88;;;4.38;;
44516;SDS011;30223;17.182;-96.766;2023-04-01T02:35:58;3.85;;;3.40;;
44516;SDS011;30223;17.182;-96.766;2023-04-01T02:38:25;5.85;;;5.25;;
44516;SDS011;30223;17.182;-96.766;2023-04-01T02:40:56;6.63;;;5.05;;
44516;SDS011;30223;17.182;-96.766;2023-04-01T02:43:24;7.30;;;4.75;;
44516;SDS011;30223;17.182;-96.766;2023-04-01T02:45:51;4.78;;;4.32;;
44516;SDS011;30223;17.182;-96.766;2023-04-01T02:48:18;8.02;;;5.25;;
44516;SDS011;30223;17.182;-96.766;2023-04-01T02:50:45;6.63;;;4.20;;
44516;SDS011;30223;17.182;-96.766;2023-04-01T02:53:12;6.95;;;5.10;;
44516;SDS011;30223;17.182;-96.766;2023-04-01T02:55:38;7.38;;;5.60;;
44516;SDS011;30223;17.182;-96.766;2023-04-01T02:58:05;6.60;;;5.35;;
44516;SDS011;30223;17.182;-96.766;2023-04-01T03:00:32;7.72;;;5.47;;
44516;SDS011;30223;17.182;-96.766;2023-04-01T03:02:59;7.07;;;5.45;;
44516;SDS011;30223;17.182;-96.766;2023-04-01T03:05:25;7.82;;;5.32;;
44516;SDS011;30223;17.182;-96.766;2023-04-01T03:07:52;8.27;;;5.60;;
44516;SDS011;30223;17.182;-96.766;2023-04-01T03:10:19;6.43;;;5.82;;
44516;SDS011;30223;17.182;-96.766;2023-04-01T03:12:45;4.88;;;4.43;;
44516;SDS011;30223;17.182;-96.766;2023-04-01T03:15:12;6.18;;;5.47;;
44516;SDS011;30223;17.182;-96.766;2023-04-01T03:17:42;6.55;;;5.80;;
44516;SDS011;30223;17.182;-96.766;2023-04-01T03:20:10;5.78;;;4.55;;
44516;SDS011;30223;17.182;-96.766;2023-04-01T03:22:37;6.72;;;5.93;;
44516;SDS011;30223;17.182;-96.766;2023-04-01T03:25:04;7.15;;;5.78;;
44516;SDS011;30223;17.182;-96.766;2023-04-01T03:27:33;7.95;;;5.95;;
44516;SDS011;30223;17.182;-96.766;2023-04-01T03:30:01;8.57;;;6.70;;
44516;SDS011;30223;17.182;-96.766;2023-04-01T03:32:29;7.13;;;5.83;;
44516;SDS011;30223;17.182;-96.766;2023-04-01T03:34:55;7.90;;;6.70;;
44516;SDS011;30223;17.182;-96.766;2023-04-01T03:37:22;6.18;;;5.10;;
44516;SDS011;30223;17.182;-96.766;2023-04-01T03:39:49;8.27;;;6.15;;
44516;SDS011;30223;17.182;-96.766;2023-04-01T03:42:16;6.68;;;5.57;;
44516;SDS011;30223;17.182;-96.766;2023-04-01T03:44:43;8.95;;;7.10;;
44516;SDS011;30223;17.182;-96.766;2023-04-01T03:47:10;6.78;;;6.07;;
44516;SDS011;30223;17.182;-96.766;2023-04-01T03:49:37;9.65;;;6.35;;
44516;SDS011;30223;17.182;-96.766;2023-04-01T03:52:03;7.70;;;5.85;;
44516;SDS011;30223;17.182;-96.766;2023-04-01T03:54:33;7.45;;;6.10;;
44516;SDS011;30223;17.182;-96.766;2023-04-01T03:57:00;6.93;;;6.22;;
44516;SDS011;30223;17.182;-96.766;2023-04-01T03:59:26;6.57;;;5.88;;
44516;SDS011;30223;17.182;-96.766;2023-04-01T04:01:53;8.23;;;6.38;;
44516;SDS011;30223;17.182;-96.766;2023-04-01T04:04:20;8.50;;;6.57;;
44516;SDS011;30223;17.182;-96.766;2023-04-01T04:06:46;7.57;;;5.63;;
44516;SDS011;30223;17.182;-96.766;2023-04-01T04:09:13;7.88;;;6.63;;
44516;SDS011;30223;17.182;-96.766;2023-04-01T04:11:40;6.70;;;5.90;;
44516;SDS011;30223;17.182;-96.766;2023-04-01T04:14:06;7.60;;;5.70;;
44516;SDS011;30223;17.182;-96.766;2023-04-01T04:16:34;7.05;;;5.80;;
44516;SDS011;30223;17.182;-96.766;2023-04-01T04:19:04;7.63;;;6.65;;
44516;SDS011;30223;17.182;-96.766;2023-04-01T04:21:31;7.93;;;7.13;;
44516;SDS011;30223;17.182;-96.766;2023-04-01T04:23:58;10.52;;;7.70;;
44516;SDS011;30223;17.182;-96.766;2023-04-01T04:26:26;13.77;;;7.18;;
44516;SDS011;30223;17.182;-96.766;2023-04-01T04:28:53;10.07;;;7.93;;
44516;SDS011;30223;17.182;-96.766;2023-04-01T04:31:21;9.82;;;7.13;;
44516;SDS011;30223;17.182;-96.766;2023-04-01T04:33:48;8.02;;;6.28;;
44516;SDS011;30223;17.182;-96.766;2023-04-01T04:36:17;9.32;;;7.78;;
44516;SDS011;30223;17.182;-96.766;2023-04-01T04:38:44;9.88;;;7.07;;
44516;SDS011;30223;17.182;-96.766;2023-04-01T04:41:11;8.98;;;8.05;;
44516;SDS011;30223;17.182;-96.766;2023-04-01T04:43:39;11.68;;;8.05;;
44516;SDS011;30223;17.182;-96.766;2023-04-01T04:46:10;11.70;;;7.75;;
44516;SDS011;30223;17.182;-96.766;2023-04-01T04:48:36;11.20;;;7.28;;
44516;SDS011;30223;17.182;-96.766;2023-04-01T04:51:03;9.38;;;7.00;;
44516;SDS011;30223;17.182;-96.766;2023-04-01T04:53:30;10.23;;;7.40;;
44516;SDS011;30223;17.182;-96.766;2023-04-01T04:55:56;8.77;;;6.47;;
44516;SDS011;30223;17.182;-96.766;2023-04-01T04:58:23;8.07;;;6.72;;
44516;SDS011;30223;17.182;-96.766;2023-04-01T05:00:50;11.90;;;7.38;;
44516;SDS011;30223;17.182;-96.766;2023-04-01T05:03:16;10.02;;;7.78;;
44516;SDS011;30223;17.182;-96.766;2023-04-01T05:05:50;11.07;;;8.18;;
44516;SDS011;30223;17.182;-96.766;2023-04-01T05:08:17;9.45;;;6.43;;
44516;SDS011;30223;17.182;-96.766;2023-04-01T05:10:44;9.45;;;7.60;;
44516;SDS011;30223;17.182;-96.766;2023-04-01T05:13:11;9.77;;;8.02;;
44516;SDS011;30223;17.182;-96.766;2023-04-01T05:15:37;11.07;;;6.53;;
44516;SDS011;30223;17.182;-96.766;2023-04-01T05:18:05;9.75;;;7.25;;
44516;SDS011;30223;17.182;-96.766;2023-04-01T05:20:31;9.43;;;7.85;;
44516;SDS011;30223;17.182;-96.766;2023-04-01T05:22:58;8.50;;;7.00;;
44516;SDS011;30223;17.182;-96.766;2023-04-01T05:25:26;8.70;;;7.03;;
44516;SDS011;30223;17.182;-96.766;2023-04-01T05:27:52;11.27;;;7.40;;
44516;SDS011;30223;17.182;-96.766;2023-04-01T05:30:19;9.95;;;8.07;;
44516;SDS011;30223;17.182;-96.766;2023-04-01T05:32:46;10.70;;;7.10;;
44516;SDS011;30223;17.182;-96.766;2023-04-01T05:35:16;9.23;;;6.80;;
44516;SDS011;30223;17.182;-96.766;2023-04-01T05:37:42;8.85;;;7.28;;
44516;SDS011;30223;17.182;-96.766;2023-04-01T05:40:09;8.55;;;7.22;;
44516;SDS011;30223;17.182;-96.766;2023-04-01T05:42:36;9.98;;;6.97;;
44516;SDS011;30223;17.182;-96.766;2023-04-01T05:45:03;8.05;;;6.68;;
44516;SDS011;30223;17.182;-96.766;2023-04-01T05:47:30;8.82;;;7.03;;
44516;SDS011;30223;17.182;-96.766;2023-04-01T05:49:57;7.85;;;6.45;;
44516;SDS011;30223;17.182;-96.766;2023-04-01T05:52:23;9.93;;;6.47;;
44516;SDS011;30223;17.182;-96.766;2023-04-01T05:54:50;9.32;;;6.53;;
44516;SDS011;30223;17.182;-96.766;2023-04-01T05:57:17;9.90;;;7.32;;
44516;SDS011;30223;17.182;-96.766;2023-04-01T05:59:44;8.02;;;6.82;;
44516;SDS011;30223;17.182;-96.766;2023-04-01T06:02:11;9.32;;;7.18;;
44516;SDS011;30223;17.182;-96.766;2023-04-01T06:04:38;8.82;;;6.85;;
44516;SDS011;30223;17.182;-96.766;2023-04-01T06:07:16;11.20;;;7.13;;
44516;SDS011;30223;17.182;-96.766;2023-04-01T06:09:44;9.32;;;5.68;;
44516;SDS011;30223;17.182;-96.766;2023-04-01T06:34:38;7.65;;;6.90;;
44516;SDS011;30223;17.182;-96.766;2023-04-01T06:42:41;8.60;;;6.60;;
44516;SDS011;30223;17.182;-96.766;2023-04-01T06:53:52;7.70;;;5.47;;
44516;SDS011;30223;17.182;-96.766;2023-04-01T06:56:32;9.13;;;6.45;;
44516;SDS011;30223;17.182;-96.766;2023-04-01T06:59:01;7.00;;;5.45;;
44516;SDS011;30223;17.182;-96.766;2023-04-01T07:01:42;7.35;;;5.60;;
44516;SDS011;30223;17.182;-96.766;2023-04-01T07:06:50;5.95;;;5.30;;
44516;SDS011;30223;17.182;-96.766;2023-04-01T07:09:43;7.75;;;6.57;;
44516;SDS011;30223;17.182;-96.766;2023-04-01T07:15:12;8.20;;;5.80;;
44516;SDS011;30223;17.182;-96.766;2023-04-01T07:17:55;6.60;;;5.78;;
44516;SDS011;30223;17.182;-96.766;2023-04-01T07:20:29;6.90;;;5.50;;
44516;SDS011;30223;17.182;-96.766;2023-04-01T07:23:03;8.43;;;5.30;;
44516;SDS011;30223;17.182;-96.766;2023-04-01T07:25:55;8.73;;;6.70;;
44516;SDS011;30223;17.182;-96.766;2023-04-01T07:28:26;8.77;;;7.53;;
44516;SDS011;30223;17.182;-96.766;2023-04-01T07:36:33;8.55;;;5.45;;
44516;SDS011;30223;17.182;-96.766;2023-04-01T07:39:28;9.02;;;5.72;;
44516;SDS011;30223;17.182;-96.766;2023-04-01T07:54:30;7.50;;;5.53;;
44516;SDS011;30223;17.182;-96.766;2023-04-01T07:56:25;8.63;;;5.70;;
44516;SDS011;30223;17.182;-96.766;2023-04-01T08:01:49;5.50;;;4.78;;
44516;SDS011;30223;17.182;-96.766;2023-04-01T08:04:46;5.85;;;5.25;;
44516;SDS011;30223;17.182;-96.766;2023-04-01T08:08:05;7.75;;;5.10;;
44516;SDS011;30223;17.182;-96.766;2023-04-01T08:10:27;7.60;;;5.93;;
44516;SDS011;30223;17.182;-96.766;2023-04-01T08:15:37;6.78;;;5.15;;
44516;SDS011;30223;17.182;-96.766;2023-04-01T08:21:32;5.18;;;4.63;;
44516;SDS011;30223;17.182;-96.766;2023-04-01T08:24:11;5.88;;;5.13;;
44516;SDS011;30223;17.182;-96.766;2023-04-01T08:27:17;6.30;;;5.68;;
44516;SDS011;30223;17.182;-96.766;2023-04-01T08:30:20;8.95;;;5.28;;
44516;SDS011;30223;17.182;-96.766;2023-04-01T08:32:56;6.18;;;4.85;;
44516;SDS011;30223;17.182;-96.766;2023-04-01T08:38:57;6.22;;;4.80;;
44516;SDS011;30223;17.182;-96.766;2023-04-01T08:58:44;7.00;;;4.93;;
44516;SDS011;30223;17.182;-96.766;2023-04-01T09:15:36;6.50;;;5.30;;
44516;SDS011;30223;17.182;-96.766;2023-04-01T09:32:14;6.15;;;4.55;;
44516;SDS011;30223;17.182;-96.766;2023-04-01T10:00:26;4.97;;;4.13;;
44516;SDS011;30223;17.182;-96.766;2023-04-01T10:03:19;4.75;;;4.07;;
44516;SDS011;30223;17.182;-96.766;2023-04-01T10:09:11;7.15;;;5.28;;
44516;SDS011;30223;17.182;-96.766;2023-04-01T10:11:59;5.60;;;4.03;;
44516;SDS011;30223;17.182;-96.766;2023-04-01T10:23:45;5.40;;;4.18;;
44516;SDS011;30223;17.182;-96.766;2023-04-01T10:43:40;7.43;;;4.45;;
44516;SDS011;30223;17.182;-96.766;2023-04-01T11:00:07;4.85;;;4.13;;
44516;SDS011;30223;17.182;-96.766;2023-04-01T11:16:59;4.47;;;3.97;;
44516;SDS011;30223;17.182;-96.766;2023-04-01T11:24:30;4.03;;;3.55;;
44516;SDS011;30223;17.182;-96.766;2023-04-01T11:30:19;4.00;;;2.97;;
44516;SDS011;30223;17.182;-96.766;2023-04-01T11:36:07;5.50;;;4.32;;
44516;SDS011;30223;17.182;-96.766;2023-04-01T11:38:57;4.20;;;2.95;;
44516;SDS011;30223;17.182;-96.766;2023-04-01T11:41:32;5.35;;;3.25;;
44516;SDS011;30223;17.182;-96.766;2023-04-01T11:44:20;5.20;;;3.95;;
44516;SDS011;30223;17.182;-96.766;2023-04-01T12:14:22;4.88;;;3.90;;
44516;SDS011;30223;17.182;-96.766;2023-04-01T12:17:05;4.20;;;3.53;;
44516;SDS011;30223;17.182;-96.766;2023-04-01T12:19:56;3.83;;;3.38;;
44516;SDS011;30223;17.182;-96.766;2023-04-01T12:22:44;4.22;;;3.55;;
44516;SDS011;30223;17.182;-96.766;2023-04-01T12:28:59;4.55;;;3.55;;
44516;SDS011;30223;17.182;-96.766;2023-04-01T12:31:46;6.07;;;3.67;;
44516;SDS011;30223;17.182;-96.766;2023-04-01T12:34:44;4.38;;;3.40;;
44516;SDS011;30223;17.182;-96.766;2023-04-01T12:38:20;5.70;;;3.65;;
44516;SDS011;30223;17.182;-96.766;2023-04-01T12:40:46;5.20;;;3.90;;
44516;SDS011;30223;17.182;-96.766;2023-04-01T12:52:14;4.45;;;3.08;;
44516;SDS011;30223;17.182;-96.766;2023-04-01T13:00:56;4.32;;;3.40;;
44516;SDS011;30223;17.182;-96.766;2023-04-01T13:09:03;8.73;;;3.92;;
44516;SDS011;30223;17.182;-96.766;2023-04-01T13:17:20;4.35;;;3.33;;
44516;SDS011;30223;17.182;-96.766;2023-04-01T13:19:54;6.00;;;4.03;;
44516;SDS011;30223;17.182;-96.766;2023-04-01T13:31:01;4.32;;;3.75;;
44516;SDS011;30223;17.182;-96.766;2023-04-01T13:33:46;4.50;;;3.50;;
44516;SDS011;30223;17.182;-96.766;2023-04-01T13:45:14;4.53;;;3.53;;
44516;SDS011;30223;17.182;-96.766;2023-04-01T14:06:47;4.72;;;3.05;;
44516;SDS011;30223;17.182;-96.766;2023-04-01T14:23:32;5.03;;;4.20;;
44516;SDS011;30223;17.182;-96.766;2023-04-01T14:34:53;4.50;;;3.80;;
44516;SDS011;30223;17.182;-96.766;2023-04-01T14:43:38;5.65;;;3.88;;
44516;SDS011;30223;17.182;-96.766;2023-04-01T14:51:50;5.15;;;3.95;;
44516;SDS011;30223;17.182;-96.766;2023-04-01T14:54:40;5.47;;;4.00;;
44516;SDS011;30223;17.182;-96.766;2023-04-01T15:00:12;5.50;;;3.97;;
44516;SDS011;30223;17.182;-96.766;2023-04-01T15:08:09;8.13;;;4.70;;
44516;SDS011;30223;17.182;-96.766;2023-04-01T15:21:19;5.30;;;4.45;;
44516;SDS011;30223;17.182;-96.766;2023-04-01T15:29:30;6.30;;;4.35;;
44516;SDS011;30223;17.182;-96.766;2023-04-01T15:40:51;8.13;;;4.55;;
44516;SDS011;30223;17.182;-96.766;2023-04-01T15:49:02;7.22;;;4.78;;
44516;SDS011;30223;17.182;-96.766;2023-04-01T15:54:48;5.63;;;4.18;;
44516;SDS011;30223;17.182;-96.766;2023-04-01T16:00:19;4.78;;;4.30;;
44516;SDS011;30223;17.182;-96.766;2023-04-01T16:08:40;6.45;;;4.53;;
44516;SDS011;30223;17.182;-96.766;2023-04-01T16:17:00;6.28;;;5.03;;
44516;SDS011;30223;17.182;-96.766;2023-04-01T16:25:14;6.38;;;4.40;;
44516;SDS011;30223;17.182;-96.766;2023-04-01T16:28:23;6.55;;;4.65;;
44516;SDS011;30223;17.182;-96.766;2023-04-01T16:36:53;6.25;;;4.38;;
44516;SDS011;30223;17.182;-96.766;2023-04-01T16:48:12;8.73;;;4.55;;
44516;SDS011;30223;17.182;-96.766;2023-04-01T16:50:53;6.05;;;4.50;;
44516;SDS011;30223;17.182;-96.766;2023-04-01T16:53:37;7.70;;;4.55;;
44516;SDS011;30223;17.182;-96.766;2023-04-01T17:01:53;4.85;;;4.25;;
44516;SDS011;30223;17.182;-96.766;2023-04-01T17:04:44;6.47;;;4.43;;
44516;SDS011;30223;17.182;-96.766;2023-04-01T17:19:10;6.38;;;4.88;;
44516;SDS011;30223;17.182;-96.766;2023-04-01T17:24:45;5.88;;;4.60;;
44516;SDS011;30223;17.182;-96.766;2023-04-01T17:30:17;6.40;;;5.13;;
44516;SDS011;30223;17.182;-96.766;2023-04-01T17:35:59;6.28;;;5.35;;
44516;SDS011;30223;17.182;-96.766;2023-04-01T17:38:46;6.35;;;4.40;;
44516;SDS011;30223;17.182;-96.766;2023-04-01T17:41:32;5.90;;;4.60;;
44516;SDS011;30223;17.182;-96.766;2023-04-01T17:44:14;5.00;;;4.35;;
44516;SDS011;30223;17.182;-96.766;2023-04-01T17:47:12;6.03;;;4.97;;
44516;SDS011;30223;17.182;-96.766;2023-04-01T18:08:54;8.35;;;5.45;;
44516;SDS011;30223;17.182;-96.766;2023-04-01T18:17:58;7.13;;;5.18;;
44516;SDS011;30223;17.182;-96.766;2023-04-01T18:20:52;6.75;;;5.20;;
44516;SDS011;30223;17.182;-96.766;2023-04-01T18:26:23;11.77;;;5.82;;
44516;SDS011;30223;17.182;-96.766;2023-04-01T18:31:45;10.50;;;6.10;;
44516;SDS011;30223;17.182;-96.766;2023-04-01T18:34:37;7.15;;;6.38;;
44516;SDS011;30223;17.182;-96.766;2023-04-01T18:37:25;10.15;;;6.80;;
44516;SDS011;30223;17.182;-96.766;2023-04-01T18:40:25;9.05;;;6.70;;
44516;SDS011;30223;17.182;-96.766;2023-04-01T18:45:59;9.35;;;6.45;;
44516;SDS011;30223;17.182;-96.766;2023-04-01T18:48:37;10.68;;;7.50;;
44516;SDS011;30223;17.182;-96.766;2023-04-01T18:54:24;11.57;;;7.60;;
44516;SDS011;30223;17.182;-96.766;2023-04-01T18:57:01;9.93;;;7.72;;
44516;SDS011;30223;17.182;-96.766;2023-04-01T18:59:50;10.60;;;6.85;;
44516;SDS011;30223;17.182;-96.766;2023-04-01T19:07:46;11.57;;;7.95;;
44516;SDS011;30223;17.182;-96.766;2023-04-01T19:10:14;12.75;;;8.15;;
44516;SDS011;30223;17.182;-96.766;2023-04-01T19:18:28;13.88;;;8.77;;
44516;SDS011;30223;17.182;-96.766;2023-04-01T19:23:52;13.30;;;9.93;;
44516;SDS011;30223;17.182;-96.766;2023-04-01T19:29:37;14.65;;;10.80;;
44516;SDS011;30223;17.182;-96.766;2023-04-01T19:41:16;14.38;;;11.07;;
44516;SDS011;30223;17.182;-96.766;2023-04-01T19:44:16;12.57;;;9.65;;
44516;SDS011;30223;17.182;-96.766;2023-04-01T19:47:02;10.75;;;9.35;;
44516;SDS011;30223;17.182;-96.766;2023-04-01T19:52:39;15.45;;;10.00;;
44516;SDS011;30223;17.182;-96.766;2023-04-01T19:55:22;17.02;;;10.52;;
44516;SDS011;30223;17.182;-96.766;2023-04-01T19:58:17;15.50;;;10.93;;
44516;SDS011;30223;17.182;-96.766;2023-04-01T20:00:58;18.20;;;12.38;;
44516;SDS011;30223;17.182;-96.766;2023-04-01T20:11:57;15.30;;;10.75;;
44516;SDS011;30223;17.182;-96.766;2023-04-01T20:17:44;17.73;;;9.82;;
44516;SDS011;30223;17.182;-96.766;2023-04-01T20:28:43;11.73;;;8.95;;
44516;SDS011;30223;17.182;-96.766;2023-04-01T20:39:05;14.55;;;9.98;;
44516;SDS011;30223;17.182;-96.766;2023-04-01T20:49:49;13.23;;;9.55;;
44516;SDS011;30223;17.182;-96.766;2023-04-01T20:52:49;19.10;;;9.55;;
44516;SDS011;30223;17.182;-96.766;2023-04-01T20:55:51;15.45;;;10.55;;
44516;SDS011;30223;17.182;-96.766;2023-04-01T20:58:29;13.43;;;10.20;;
44516;SDS011;30223;17.182;-96.766;2023-04-01T21:06:29;12.38;;;8.85;;
44516;SDS011;30223;17.182;-96.766;2023-04-01T21:12:01;14.13;;;8.05;;
44516;SDS011;30223;17.182;-96.766;2023-04-01T21:22:48;11.32;;;8.85;;
44516;SDS011;30223;17.182;-96.766;2023-04-01T21:25:34;15.95;;;9.18;;
44516;SDS011;30223;17.182;-96.766;2023-04-01T21:28:12;11.38;;;8.20;;
44516;SDS011;30223;17.182;-96.766;2023-04-01T21:36:20;10.68;;;7.88;;
44516;SDS011;30223;17.182;-96.766;2023-04-01T21:50:47;10.27;;;8.00;;
44516;SDS011;30223;17.182;-96.766;2023-04-01T21:56:09;13.90;;;7.60;;
44516;SDS011;30223;17.182;-96.766;2023-04-01T21:59:06;10.50;;;7.32;;
44516;SDS011;30223;17.182;-96.766;2023-04-01T22:01:52;8.63;;;6.72;;
44516;SDS011;30223;17.182;-96.766;2023-04-01T22:07:19;9.27;;;7.40;;
44516;SDS011;30223;17.182;-96.766;2023-04-01T22:09:58;9.30;;;6.75;;
44516;SDS011;30223;17.182;-96.766;2023-04-01T22:15:40;8.32;;;6.68;;
44516;SDS011;30223;17.182;-96.766;2023-04-01T22:27:07;9.60;;;7.45;;
44516;SDS011;30223;17.182;-96.766;2023-04-01T22:32:28;10.88;;;6.82;;
44516;SDS011;30223;17.182;-96.766;2023-04-01T22:35:18;12.65;;;6.88;;
44516;SDS011;30223;17.182;-96.766;2023-04-01T22:48:45;8.77;;;6.70;;
44516;SDS011;30223;17.182;-96.766;2023-04-01T22:51:46;10.15;;;7.40;;
44516;SDS011;30223;17.182;-96.766;2023-04-01T22:57:12;13.45;;;7.65;;
44516;SDS011;30223;17.182;-96.766;2023-04-01T23:00:07;9.70;;;6.43;;
44516;SDS011;30223;17.182;-96.766;2023-04-01T23:02:43;13.63;;;6.22;;
44516;SDS011;30223;17.182;-96.766;2023-04-01T23:05:31;9.52;;;7.35;;
44516;SDS011;30223;17.182;-96.766;2023-04-01T23:10:51;8.80;;;6.32;;
44516;SDS011;30223;17.182;-96.766;2023-04-01T23:13:22;5.93;;;4.90;;
44516;SDS011;30223;17.182;-96.766;2023-04-01T23:16:10;6.90;;;6.10;;
44516;SDS011;30223;17.182;-96.766;2023-04-01T23:21:17;9.25;;;5.78;;
44516;SDS011;30223;17.182;-96.766;2023-04-01T23:24:09;7.80;;;6.25;;
44516;SDS011;30223;17.182;-96.766;2023-04-01T23:26:43;8.93;;;6.80;;
44516;SDS011;30223;17.182;-96.766;2023-04-01T23:29:17;10.38;;;7.10;;
44516;SDS011;30223;17.182;-96.766;2023-04-01T23:31:45;8.70;;;7.22;;
44516;SDS011;30223;17.182;-96.766;2023-04-01T23:36:41;7.93;;;7.07;;
44516;SDS011;30223;17.182;-96.766;2023-04-01T23:39:31;37.55;;;12.32;;
44516;SDS011;30223;17.182;-96.766;2023-04-01T23:42:00;34.22;;;10.18;;
44516;SDS011;30223;17.182;-96.766;2023-04-01T23:44:38;21.70;;;9.07;;
44516;SDS011;30223;17.182;-96.766;2023-04-01T23:47:06;17.60;;;8.60;;
44516;SDS011;30223;17.182;-96.766;2023-04-01T23:49:41;16.40;;;8.45;;
44516;SDS011;30223;17.182;-96.766;2023-04-01T23:52:20;12.10;;;8.00;;
44516;SDS011;30223;17.182;-96.766;2023-04-01T23:57:32;13.38;;;8.25;;
